Time;durP1;ratioP1;P1;durP2;ratioP2;P2;SDS_P1;SDS_P2;PMS_P1;PMS_P2;Temp;Humidity;BMP_temperature;BMP_pressure;BME280_temperature;BME280_humidity;BME280_pressure;Samples;Min_cycle;Max_cycle;Signal;HPM_P1;HPM_P2
2023/12/07 00:00:26;;;;;;;;;;;;;;;;;;5004407;28;19987;-52
2023/12/07 00:02:52;;;;;;;;;;;;;;;;;;5009782;28;20376;-51
2023/12/07 00:05:18;;;;;;;;;;;;;;;;;;4993234;28;20291;-53
2023/12/07 00:07:44;;;;;;;;;;;;;;;;;;5003774;28;20514;-52
2023/12/07 00:10:10;;;;;;;;;;;;;;;;;;5009027;28;20279;-53
2023/12/07 00:12:36;;;;;;;;;;;;;;;;;;5012621;28;20298;-51
2023/12/07 00:15:02;;;;;;;;;;;;;;;;;;5008134;28;20330;-52
2023/12/07 00:17:28;;;;;;;;;;;;;;;;;;4990592;28;19914;-52
2023/12/07 00:19:55;;;;;;;;;;;;;;;;;;5007147;28;19921;-52
2023/12/07 00:22:21;;;;;;;;;;;;;;;;;;5012390;28;20294;-54
2023/12/07 00:24:48;;;;;;;;;;;;;;;;;;5012670;28;20274;-51
2023/12/07 00:27:14;;;;;;;;;;;;;;;;;;5012182;28;20394;-52
2023/12/07 00:29:40;;;;;;;;;;;;;;;;;;5011780;28;19914;-51
2023/12/07 00:32:06;;;;;;;;;;;;;;;;;;5000666;28;19968;-52
2023/12/07 00:34:32;;;;;;;;;;;;;;;;;;5012246;28;19917;-51
2023/12/07 00:36:58;;;;;;;;;;;;;;;;;;5012337;28;20386;-52
2023/12/07 00:39:24;;;;;;;;;;;;;;;;;;5010624;28;19917;-52
2023/12/07 00:41:50;;;;;;;;;;;;;;;;;;4996789;28;20382;-52
2023/12/07 00:44:16;;;;;;;;;;;;;;;;;;4990782;28;19914;-52
2023/12/07 00:46:43;;;;;;;;;;;;;;;;;;5002451;28;20302;-52
2023/12/07 00:49:09;;;;;;;;;;;;;;;;;;5011042;28;19937;-52
2023/12/07 00:51:35;;;;;;;;;;;;;;;;;;5005248;28;19948;-52
2023/12/07 00:54:01;;;;;;;;;;;;;;;;;;4992151;28;20013;-52
2023/12/07 00:56:27;;;;;;;;;;;;;;;;;;4992497;28;19921;-51
2023/12/07 00:58:53;;;;;;;;;;;;;;;;;;4993604;28;19914;-52
2023/12/07 01:01:19;;;;;;;;;;;;;;;;;;4998515;28;19924;-52
2023/12/07 01:03:45;;;;;;;;;;;;;;;;;;4998746;28;19914;-51
2023/12/07 01:06:11;;;;;;;;;;;;;;;;;;5011306;28;19925;-52
2023/12/07 01:08:37;;;;;;;;;;;;;;;;;;5010743;28;19913;-51
2023/12/07 01:11:04;;;;;;;;;;;;;;;;;;5012011;28;19913;-54
2023/12/07 01:13:30;;;;;;;;;;;;;;;;;;5010595;28;19929;-52
2023/12/07 01:15:56;;;;;;;;;;;;;;;;;;5008027;28;19914;-51
2023/12/07 01:18:22;;;;;;;;;;;;;;;;;;4994813;28;20004;-54
2023/12/07 01:20:48;;;;;;;;;;;;;;;;;;4996083;28;19996;-52
2023/12/07 01:23:14;;;;;;;;;;;;;;;;;;4997557;28;19921;-51
2023/12/07 01:25:40;;;;;;;;;;;;;;;;;;5013563;28;19972;-51
2023/12/07 01:28:06;;;;;;;;;;;;;;;;;;5004292;28;19967;-51
2023/12/07 01:30:32;;;;;;;;;;;;;;;;;;5001167;28;19961;-51
2023/12/07 01:32:59;;;;;;;;;;;;;;;;;;4997866;28;19976;-53
2023/12/07 01:35:25;;;;;;;;;;;;;;;;;;5012396;28;20432;-51
2023/12/07 01:37:51;;;;;;;;;;;;;;;;;;5009150;28;19913;-52
2023/12/07 01:40:17;;;;;;;;;;;;;;;;;;5014199;28;19936;-51
2023/12/07 01:42:43;;;;;;;;;;;;;;;;;;4996951;28;20064;-52
2023/12/07 01:45:09;;;;;;;;;;;;;;;;;;4993523;28;19925;-51
2023/12/07 01:47:36;;;;;;;;;;;;;;;;;;5001582;28;19961;-51
2023/12/07 01:50:04;;;;;;;;;;;;;;;;;;4994366;28;19913;-52
2023/12/07 01:52:30;;;;;;;;;;;;;;;;;;4994090;28;20103;-52
2023/12/07 01:54:56;;;;;;;;;;;;;;;;;;5009990;28;19917;-51
2023/12/07 01:57:22;;;;;;;;;;;;;;;;;;5001524;28;19917;-54
2023/12/07 01:59:48;;;;;;;;;;;;;;;;;;4995170;28;19918;-51
2023/12/07 02:02:14;;;;;;;;;;;;;;;;;;5007951;28;19920;-51
2023/12/07 02:04:40;;;;;;;;;;;;;;;;;;5010959;28;19960;-54
2023/12/07 02:07:06;;;;;;;;;;;;;;;;;;5014483;28;19925;-53
2023/12/07 02:09:32;;;;;;;;;;;;;;;;;;5014634;28;19917;-51
2023/12/07 02:12:00;;;;;;;;;;;;;;;;;;5014711;28;19914;-51
2023/12/07 02:14:26;;;;;;;;;;;;;;;;;;5013874;28;19956;-51
2023/12/07 02:16:52;;;;;;;;;;;;;;;;;;5014478;28;19913;-51
2023/12/07 02:19:18;;;;;;;;;;;;;;;;;;5015039;28;19921;-51
2023/12/07 02:21:44;;;;;;;;;;;;;;;;;;5014308;28;19914;-51
2023/12/07 02:24:10;;;;;;;;;;;;;;;;;;5013805;28;19919;-51
2023/12/07 02:26:37;;;;;;;;;;;;;;;;;;5013338;28;19913;-53
2023/12/07 02:29:03;;;;;;;;;;;;;;;;;;5014465;28;19913;-51
2023/12/07 02:31:29;;;;;;;;;;;;;;;;;;5014357;28;19917;-51
2023/12/07 02:33:55;;;;;;;;;;;;;;;;;;5013945;28;19968;-51
2023/12/07 02:36:21;;;;;;;;;;;;;;;;;;5014096;28;19921;-51
2023/12/07 02:38:47;;;;;;;;;;;;;;;;;;5012926;28;19918;-51
2023/12/07 02:41:13;;;;;;;;;;;;;;;;;;5014165;28;19919;-51
2023/12/07 02:43:40;;;;;;;;;;;;;;;;;;5013401;28;19924;-51
2023/12/07 02:46:06;;;;;;;;;;;;;;;;;;5013350;28;19913;-51
2023/12/07 02:48:32;;;;;;;;;;;;;;;;;;5013673;28;20421;-51
2023/12/07 02:50:58;;;;;;;;;;;;;;;;;;5012534;28;19913;-51
2023/12/07 02:53:24;;;;;;;;;;;;;;;;;;5013131;28;19924;-52
2023/12/07 02:55:50;;;;;;;;;;;;;;;;;;5012254;28;20021;-51
2023/12/07 02:58:16;;;;;;;;;;;;;;;;;;5012761;28;19960;-51
2023/12/07 03:00:42;;;;;;;;;;;;;;;;;;5011918;28;19914;-51
2023/12/07 03:03:08;;;;;;;;;;;;;;;;;;5012515;28;20429;-54
2023/12/07 03:05:34;;;;;;;;;;;;;;;;;;4999951;28;20347;-51
2023/12/07 03:08:00;;;;;;;;;;;;;;;;;;4997472;28;20315;-52
2023/12/07 03:10:26;;;;;;;;;;;;;;;;;;4999718;28;20298;-51
2023/12/07 03:12:52;;;;;;;;;;;;;;;;;;5001542;28;20367;-51
2023/12/07 03:15:19;;;;;;;;;;;;;;;;;;4995565;28;19920;-53
2023/12/07 03:17:45;;;;;;;;;;;;;;;;;;5012899;28;19913;-53
2023/12/07 03:20:11;;;;;;;;;;;;;;;;;;5002143;28;19984;-51
2023/12/07 03:22:37;;;;;;;;;;;;;;;;;;5002264;28;19913;-51
2023/12/07 03:25:03;;;;;;;;;;;;;;;;;;5012350;28;19913;-51
2023/12/07 03:27:29;;;;;;;;;;;;;;;;;;4992832;28;20409;-51
2023/12/07 03:29:55;;;;;;;;;;;;;;;;;;5001351;28;19913;-51
2023/12/07 03:32:21;;;;;;;;;;;;;;;;;;5009883;28;19960;-51
2023/12/07 03:34:47;;;;;;;;;;;;;;;;;;5002190;28;19921;-51
2023/12/07 03:37:13;;;;;;;;;;;;;;;;;;4993124;28;19913;-51
2023/12/07 03:39:39;;;;;;;;;;;;;;;;;;4992394;28;19956;-53
2023/12/07 03:42:05;;;;;;;;;;;;;;;;;;4994665;28;20308;-51
2023/12/07 03:44:31;;;;;;;;;;;;;;;;;;5005106;28;19914;-52
2023/12/07 03:46:57;;;;;;;;;;;;;;;;;;5010592;28;19914;-51
2023/12/07 03:49:23;;;;;;;;;;;;;;;;;;5011642;28;19909;-51
2023/12/07 03:51:49;;;;;;;;;;;;;;;;;;5007874;28;20007;-51
2023/12/07 03:54:15;;;;;;;;;;;;;;;;;;5002984;28;20013;-51
2023/12/07 03:56:42;;;;;;;;;;;;;;;;;;4994248;28;20382;-51
2023/12/07 03:59:08;;;;;;;;;;;;;;;;;;4991798;28;19921;-51
2023/12/07 04:01:34;;;;;;;;;;;;;;;;;;4992894;28;19965;-51
2023/12/07 04:04:00;;;;;;;;;;;;;;;;;;5003426;28;19914;-51
2023/12/07 04:06:26;;;;;;;;;;;;;;;;;;4993732;28;19925;-51
2023/12/07 04:08:52;;;;;;;;;;;;;;;;;;4993284;28;19944;-51
2023/12/07 04:11:18;;;;;;;;;;;;;;;;;;5004037;28;19980;-54
2023/12/07 04:13:44;;;;;;;;;;;;;;;;;;5006216;28;20192;-51
2023/12/07 04:16:10;;;;;;;;;;;;;;;;;;5007371;28;20007;-51
2023/12/07 04:18:36;;;;;;;;;;;;;;;;;;5002520;28;19936;-52
2023/12/07 04:21:02;;;;;;;;;;;;;;;;;;5012538;28;19913;-51
2023/12/07 04:23:29;;;;;;;;;;;;;;;;;;5003601;28;19936;-52
2023/12/07 04:25:55;;;;;;;;;;;;;;;;;;5009981;28;19984;-53
2023/12/07 04:28:21;;;;;;;;;;;;;;;;;;5010732;28;19936;-51
2023/12/07 04:30:47;;;;;;;;;;;;;;;;;;5005178;28;20193;-51
2023/12/07 04:33:13;;;;;;;;;;;;;;;;;;5010621;28;19937;-51
2023/12/07 04:35:39;;;;;;;;;;;;;;;;;;5012321;28;19964;-51
2023/12/07 04:38:05;;;;;;;;;;;;;;;;;;5012568;28;19913;-52
2023/12/07 04:40:31;;;;;;;;;;;;;;;;;;5011612;28;19920;-52
2023/12/07 04:42:57;;;;;;;;;;;;;;;;;;5010111;28;19914;-51
2023/12/07 04:45:23;;;;;;;;;;;;;;;;;;5009651;28;20402;-51
2023/12/07 04:47:49;;;;;;;;;;;;;;;;;;5010150;28;19952;-52
2023/12/07 04:50:15;;;;;;;;;;;;;;;;;;5004282;28;20350;-52
2023/12/07 04:52:41;;;;;;;;;;;;;;;;;;4996461;28;19910;-51
2023/12/07 04:55:08;;;;;;;;;;;;;;;;;;4995146;28;19944;-52
2023/12/07 04:57:34;;;;;;;;;;;;;;;;;;5012734;28;19910;-51
2023/12/07 05:00:00;;;;;;;;;;;;;;;;;;5014761;28;19925;-51
2023/12/07 05:02:27;;;;;;;;;;;;;;;;;;5015918;28;19913;-51
2023/12/07 05:04:53;;;;;;;;;;;;;;;;;;5016019;28;19996;-54
2023/12/07 05:07:19;;;;;;;;;;;;;;;;;;5015967;28;19921;-54
2023/12/07 05:09:45;;;;;;;;;;;;;;;;;;5014736;28;19913;-55
2023/12/07 05:12:11;;;;;;;;;;;;;;;;;;5015725;28;20055;-51
2023/12/07 05:14:38;;;;;;;;;;;;;;;;;;5015769;28;20174;-53
2023/12/07 05:17:05;;;;;;;;;;;;;;;;;;5015747;28;19914;-51
2023/12/07 05:19:31;;;;;;;;;;;;;;;;;;5015829;28;20374;-51
2023/12/07 05:21:57;;;;;;;;;;;;;;;;;;5015815;28;19941;-51
2023/12/07 05:24:23;;;;;;;;;;;;;;;;;;5015768;28;19920;-51
2023/12/07 05:26:49;;;;;;;;;;;;;;;;;;5016006;28;20101;-51
2023/12/07 05:29:15;;;;;;;;;;;;;;;;;;5015525;28;19968;-51
2023/12/07 05:31:41;;;;;;;;;;;;;;;;;;5015570;28;19921;-51
2023/12/07 05:34:07;;;;;;;;;;;;;;;;;;5015422;28;19921;-51
2023/12/07 05:36:33;;;;;;;;;;;;;;;;;;5015564;28;19914;-51
2023/12/07 05:38:59;;;;;;;;;;;;;;;;;;5015684;28;19917;-51
2023/12/07 05:41:25;;;;;;;;;;;;;;;;;;5015106;28;19913;-52
2023/12/07 05:43:52;;;;;;;;;;;;;;;;;;5015133;28;19914;-52
2023/12/07 05:46:18;;;;;;;;;;;;;;;;;;5015307;28;20356;-51
2023/12/07 05:48:44;;;;;;;;;;;;;;;;;;5014191;28;20409;-51
2023/12/07 05:51:10;;;;;;;;;;;;;;;;;;5015479;28;19917;-51
2023/12/07 05:53:36;;;;;;;;;;;;;;;;;;5015051;28;19925;-51
2023/12/07 05:56:02;;;;;;;;;;;;;;;;;;5014906;28;20432;-51
2023/12/07 05:58:28;;;;;;;;;;;;;;;;;;5013910;28;20378;-53
2023/12/07 06:00:54;;;;;;;;;;;;;;;;;;5014904;28;19913;-52
2023/12/07 06:03:20;;;;;;;;;;;;;;;;;;5014794;28;19913;-51
2023/12/07 06:05:47;;;;;;;;;;;;;;;;;;5014823;28;19999;-52
2023/12/07 06:08:13;;;;;;;;;;;;;;;;;;5014941;28;19917;-51
2023/12/07 06:10:39;;;;;;;;;;;;;;;;;;5014911;28;19953;-54
2023/12/07 06:13:05;;;;;;;;;;;;;;;;;;5014702;28;20382;-52
2023/12/07 06:15:31;;;;;;;;;;;;;;;;;;5014715;28;19952;-52
2023/12/07 06:17:57;;;;;;;;;;;;;;;;;;5013455;28;19913;-52
2023/12/07 06:20:23;;;;;;;;;;;;;;;;;;5014751;28;19913;-52
2023/12/07 06:22:49;;;;;;;;;;;;;;;;;;5014515;28;19918;-53
2023/12/07 06:25:16;;;;;;;;;;;;;;;;;;5013284;28;19961;-51
2023/12/07 06:27:42;;;;;;;;;;;;;;;;;;5014578;28;19944;-52
2023/12/07 06:30:08;;;;;;;;;;;;;;;;;;5014596;28;20293;-52
2023/12/07 06:32:34;;;;;;;;;;;;;;;;;;5014380;28;19996;-51
2023/12/07 06:35:00;;;;;;;;;;;;;;;;;;5014352;28;19918;-51
2023/12/07 06:37:26;;;;;;;;;;;;;;;;;;5014374;28;19939;-51
2023/12/07 06:39:52;;;;;;;;;;;;;;;;;;5014240;28;19952;-51
2023/12/07 06:42:18;;;;;;;;;;;;;;;;;;5014132;28;19920;-51
2023/12/07 06:44:45;;;;;;;;;;;;;;;;;;5014337;28;19920;-51
2023/12/07 06:47:11;;;;;;;;;;;;;;;;;;5013985;28;20243;-51
2023/12/07 06:49:37;;;;;;;;;;;;;;;;;;5014138;28;20374;-50
2023/12/07 06:52:03;;;;;;;;;;;;;;;;;;5012960;28;20353;-49
2023/12/07 06:54:29;;;;;;;;;;;;;;;;;;5000869;28;19980;-49
2023/12/07 06:56:55;;;;;;;;;;;;;;;;;;5004501;28;19914;-51
2023/12/07 06:59:21;;;;;;;;;;;;;;;;;;5013945;28;19913;-49
2023/12/07 07:01:47;;;;;;;;;;;;;;;;;;5013983;28;20373;-49
2023/12/07 07:04:13;;;;;;;;;;;;;;;;;;5013673;28;19913;-50
2023/12/07 07:06:39;;;;;;;;;;;;;;;;;;5013669;28;19921;-53
2023/12/07 07:09:05;;;;;;;;;;;;;;;;;;5013639;28;20370;-51
2023/12/07 07:11:31;;;;;;;;;;;;;;;;;;5012209;28;19914;-51
2023/12/07 07:13:57;;;;;;;;;;;;;;;;;;5011921;28;19924;-50
2023/12/07 07:16:24;;;;;;;;;;;;;;;;;;5013677;28;20000;-50
2023/12/07 07:18:50;;;;;;;;;;;;;;;;;;5013741;28;19971;-50
2023/12/07 07:21:16;;;;;;;;;;;;;;;;;;5013472;28;20378;-50
2023/12/07 07:23:42;;;;;;;;;;;;;;;;;;5011973;28;20388;-50
2023/12/07 07:26:08;;;;;;;;;;;;;;;;;;5013490;28;20326;-50
2023/12/07 07:28:34;;;;;;;;;;;;;;;;;;5013495;28;19917;-51
2023/12/07 07:31:00;;;;;;;;;;;;;;;;;;5013444;28;19972;-53
2023/12/07 07:33:26;;;;;;;;;;;;;;;;;;5013100;28;19918;-51
2023/12/07 07:35:52;;;;;;;;;;;;;;;;;;5013186;28;19913;-51
2023/12/07 07:38:18;;;;;;;;;;;;;;;;;;5013143;28;19914;-50
2023/12/07 07:40:45;;;;;;;;;;;;;;;;;;5013116;28;20004;-50
2023/12/07 07:43:11;;;;;;;;;;;;;;;;;;5013073;28;19921;-53
2023/12/07 07:45:37;;;;;;;;;;;;;;;;;;5013189;28;19996;-51
2023/12/07 07:48:03;;;;;;;;;;;;;;;;;;5006381;28;19917;-51
2023/12/07 07:50:29;;;;;;;;;;;;;;;;;;4993457;28;19913;-51
2023/12/07 07:52:55;;;;;;;;;;;;;;;;;;5007796;28;20290;-51
2023/12/07 07:55:21;;;;;;;;;;;;;;;;;;5012812;28;19917;-50
2023/12/07 07:57:47;;;;;;;;;;;;;;;;;;5012980;28;19914;-51
2023/12/07 08:00:13;;;;;;;;;;;;;;;;;;5013022;28;19940;-50
2023/12/07 08:02:40;;;;;;;;;;;;;;;;;;5012744;28;19960;-51
2023/12/07 08:05:06;;;;;;;;;;;;;;;;;;5012767;28;19914;-52
2023/12/07 08:07:32;;;;;;;;;;;;;;;;;;5012676;28;19917;-51
2023/12/07 08:09:58;;;;;;;;;;;;;;;;;;5012758;28;19920;-50
2023/12/07 08:12:24;;;;;;;;;;;;;;;;;;5012560;28;19960;-50
2023/12/07 08:14:50;;;;;;;;;;;;;;;;;;5012598;28;20091;-50
2023/12/07 08:17:16;;;;;;;;;;;;;;;;;;5012597;28;19913;-51
2023/12/07 08:19:42;;;;;;;;;;;;;;;;;;5012576;28;19914;-50
2023/12/07 08:22:08;;;;;;;;;;;;;;;;;;5012422;28;19968;-50
2023/12/07 08:24:35;;;;;;;;;;;;;;;;;;5011756;28;19960;-50
2023/12/07 08:27:03;;;;;;;;;;;;;;;;;;5012372;28;19913;-50
2023/12/07 08:29:29;;;;;;;;;;;;;;;;;;5012576;28;19921;-50
2023/12/07 08:31:55;;;;;;;;;;;;;;;;;;5012570;28;19914;-50
2023/12/07 08:34:21;;;;;;;;;;;;;;;;;;5012281;28;19925;-51
2023/12/07 08:36:47;;;;;;;;;;;;;;;;;;5012353;28;20537;-50
2023/12/07 08:39:13;;;;;;;;;;;;;;;;;;5012475;28;19913;-49
2023/12/07 08:41:39;;;;;;;;;;;;;;;;;;5012246;28;20015;-50
2023/12/07 08:44:05;;;;;;;;;;;;;;;;;;5010858;28;19914;-50
2023/12/07 08:46:31;;;;;;;;;;;;;;;;;;5012356;28;19917;-49
2023/12/07 08:48:57;;;;;;;;;;;;;;;;;;5012255;28;19913;-50
2023/12/07 08:51:23;;;;;;;;;;;;;;;;;;5012232;28;20564;-50
2023/12/07 08:53:51;;;;;;;;;;;;;;;;;;5012078;28;19929;-50
2023/12/07 08:56:17;;;;;;;;;;;;;;;;;;5011045;28;19914;-50
2023/12/07 08:58:44;;;;;;;;;;;;;;;;;;5012378;28;20337;-50
2023/12/07 09:01:11;;;;;;;;;;;;;;;;;;5012225;28;20045;-52
2023/12/07 09:03:37;;;;;;;;;;;;;;;;;;5012005;28;19913;-50
2023/12/07 09:06:04;;;;;;;;;;;;;;;;;;5012252;28;19913;-50
2023/12/07 09:08:30;;;;;;;;;;;;;;;;;;5012399;28;20585;-50
2023/12/07 09:10:56;;;;;;;;;;;;;;;;;;5012191;28;20576;-50
2023/12/07 09:13:22;;;;;;;;;;;;;;;;;;5011922;28;20441;-50
2023/12/07 09:15:48;;;;;;;;;;;;;;;;;;5012026;28;19921;-50
2023/12/07 09:18:14;;;;;;;;;;;;;;;;;;5012149;28;19914;-50
2023/12/07 09:20:46;;;;;;;;;;;;;;;;;;5011985;28;20317;-50
2023/12/07 09:23:12;;;;;;;;;;;;;;;;;;5011907;28;20405;-51
2023/12/07 09:25:38;;;;;;;;;;;;;;;;;;5012141;28;19909;-50
2023/12/07 09:28:04;;;;;;;;;;;;;;;;;;5010536;28;20433;-51
2023/12/07 09:30:30;;;;;;;;;;;;;;;;;;5011410;28;20294;-50
2023/12/07 09:32:59;;;;;;;;;;;;;;;;;;5011916;28;19968;-50
2023/12/07 09:35:25;;;;;;;;;;;;;;;;;;5012409;28;19920;-49
2023/12/07 09:37:51;;;;;;;;;;;;;;;;;;5015546;28;19913;-50
2023/12/07 09:40:17;;;;;;;;;;;;;;;;;;5015083;28;19916;-50
2023/12/07 09:42:43;;;;;;;;;;;;;;;;;;5014889;28;19914;-50
2023/12/07 09:45:09;;;;;;;;;;;;;;;;;;5015155;28;19917;-50
2023/12/07 09:47:35;;;;;;;;;;;;;;;;;;5015267;28;19949;-51
2023/12/07 09:50:01;;;;;;;;;;;;;;;;;;5015199;28;19940;-49
2023/12/07 09:52:28;;;;;;;;;;;;;;;;;;5015265;28;19920;-49
2023/12/07 09:54:54;;;;;;;;;;;;;;;;;;5015023;28;20378;-50
2023/12/07 09:57:21;;;;;;;;;;;;;;;;;;5015141;28;19940;-50
2023/12/07 09:59:47;;;;;;;;;;;;;;;;;;5015093;28;20386;-50
2023/12/07 10:02:13;;;;;;;;;;;;;;;;;;5014864;28;20239;-50
2023/12/07 10:04:39;;;;;;;;;;;;;;;;;;5014976;28;19913;-50
2023/12/07 10:07:08;;;;;;;;;;;;;;;;;;5082694;23;19925;-56
2023/12/07 10:09:34;;;;;;;;;;;;;;;;;;5054592;28;19913;-56
2023/12/07 10:12:00;;;;;;;;;;;;;;;;;;5054602;28;19909;-56
2023/12/07 10:14:26;;;;;;;;;;;;;;;;;;5054327;28;19920;-56
2023/12/07 10:16:53;;;;;;;;;;;;;;;;;;5054570;28;20289;-55
2023/12/07 10:19:21;;;;;;;;;;;;;;;;;;5054538;28;19962;-56
2023/12/07 10:21:47;;;;;;;;;;;;;;;;;;5054486;28;19913;-54
2023/12/07 10:24:13;;;;;;;;;;;;;;;;;;5054275;28;19956;-53
2023/12/07 10:26:39;;;;;;;;;;;;;;;;;;5054300;28;19944;-53
2023/12/07 10:29:05;;;;;;;;;;;;;;;;;;5054166;28;20385;-56
2023/12/07 10:31:32;;;;;;;;;;;;;;;;;;5053078;28;19978;-52
2023/12/07 10:33:58;;;;;;;;;;;;;;;;;;5053902;28;19912;-53
2023/12/07 10:36:24;;;;;;;;;;;;;;;;;;5054012;28;19919;-56
2023/12/07 10:38:53;;;;;;;;;;;;;;;;;;5054105;28;19919;-55
2023/12/07 10:41:19;;;;;;;;;;;;;;;;;;5054001;28;19935;-55
2023/12/07 10:43:45;;;;;;;;;;;;;;;;;;5053668;28;20361;-56
2023/12/07 10:46:11;;;;;;;;;;;;;;;;;;5053646;28;19920;-55
2023/12/07 10:48:37;;;;;;;;;;;;;;;;;;5053145;28;19909;-55
2023/12/07 10:51:03;;;;;;;;;;;;;;;;;;5053862;28;19959;-56
2023/12/07 10:53:30;;;;;;;;;;;;;;;;;;5053723;28;19913;-56
2023/12/07 10:55:56;;;;;;;;;;;;;;;;;;5053694;28;19974;-56
2023/12/07 10:58:22;;;;;;;;;;;;;;;;;;5053607;28;19999;-56
2023/12/07 11:00:48;;;;;;;;;;;;;;;;;;5053720;28;19913;-56
2023/12/07 11:03:14;;;;;;;;;;;;;;;;;;5053390;28;19919;-56
2023/12/07 11:05:40;;;;;;;;;;;;;;;;;;5053550;28;19999;-52
2023/12/07 11:08:07;;;;;;;;;;;;;;;;;;5053559;28;19913;-56
2023/12/07 11:10:33;;;;;;;;;;;;;;;;;;5053358;28;20296;-56
2023/12/07 11:12:59;;;;;;;;;;;;;;;;;;5051874;28;19958;-56
2023/12/07 11:15:26;;;;;;;;;;;;;;;;;;5053224;28;20015;-54
2023/12/07 11:17:53;;;;;;;;;;;;;;;;;;5053357;28;19913;-58
2023/12/07 11:20:19;;;;;;;;;;;;;;;;;;5044670;28;19908;-57
2023/12/07 11:22:45;;;;;;;;;;;;;;;;;;5037597;28;19913;-57
2023/12/07 11:25:11;;;;;;;;;;;;;;;;;;5035437;28;19936;-57
2023/12/07 11:27:37;;;;;;;;;;;;;;;;;;5044032;28;19913;-55
2023/12/07 11:30:03;;;;;;;;;;;;;;;;;;5033270;28;19913;-57
2023/12/07 11:32:29;;;;;;;;;;;;;;;;;;5043646;28;19920;-56
2023/12/07 11:34:55;;;;;;;;;;;;;;;;;;5053022;28;20015;-56
2023/12/07 11:37:21;;;;;;;;;;;;;;;;;;5052981;28;19959;-57
2023/12/07 11:39:47;;;;;;;;;;;;;;;;;;5052841;28;20381;-53
2023/12/07 11:42:13;;;;;;;;;;;;;;;;;;5052653;28;20000;-57
2023/12/07 11:44:39;;;;;;;;;;;;;;;;;;5046596;28;19963;-57
2023/12/07 11:47:06;;;;;;;;;;;;;;;;;;5040099;28;19913;-53
2023/12/07 11:49:32;;;;;;;;;;;;;;;;;;5046472;28;20297;-56
2023/12/07 11:51:58;;;;;;;;;;;;;;;;;;5049027;28;20281;-54
2023/12/07 11:54:24;;;;;;;;;;;;;;;;;;5050865;28;20757;-58
2023/12/07 11:56:50;;;;;;;;;;;;;;;;;;5039793;28;19913;-58
2023/12/07 11:59:16;;;;;;;;;;;;;;;;;;5042991;28;19920;-58
2023/12/07 12:01:42;;;;;;;;;;;;;;;;;;5043488;28;20011;-57
2023/12/07 12:04:09;;;;;;;;;;;;;;;;;;5034732;28;19919;-58
2023/12/07 12:06:35;;;;;;;;;;;;;;;;;;5041095;28;20598;-59
2023/12/07 12:09:01;;;;;;;;;;;;;;;;;;5035073;28;20373;-58
2023/12/07 12:11:27;;;;;;;;;;;;;;;;;;5047320;28;19913;-58
2023/12/07 12:13:53;;;;;;;;;;;;;;;;;;5049954;28;19979;-58
2023/12/07 12:16:19;;;;;;;;;;;;;;;;;;5044816;28;19920;-59
2023/12/07 12:18:45;;;;;;;;;;;;;;;;;;5033512;28;20011;-59
2023/12/07 12:21:11;;;;;;;;;;;;;;;;;;5046202;28;20487;-59
2023/12/07 12:23:39;;;;;;;;;;;;;;;;;;5039544;28;19920;-59
2023/12/07 12:26:05;;;;;;;;;;;;;;;;;;5049603;28;20282;-58
2023/12/07 12:28:32;;;;;;;;;;;;;;;;;;5050752;28;19913;-59
2023/12/07 12:30:58;;;;;;;;;;;;;;;;;;5051677;28;20293;-55
2023/12/07 12:33:24;;;;;;;;;;;;;;;;;;5050845;28;20464;-59
2023/12/07 12:35:50;;;;;;;;;;;;;;;;;;5045234;28;19916;-59
2023/12/07 12:38:16;;;;;;;;;;;;;;;;;;5032481;28;20393;-59
2023/12/07 12:40:42;;;;;;;;;;;;;;;;;;5032179;28;19913;-59
2023/12/07 12:43:08;;;;;;;;;;;;;;;;;;5046194;28;20411;-58
2023/12/07 12:45:34;;;;;;;;;;;;;;;;;;5046028;28;20411;-59
2023/12/07 12:48:01;;;;;;;;;;;;;;;;;;5033374;28;19914;-59
2023/12/07 12:50:27;;;;;;;;;;;;;;;;;;5038448;28;19940;-59
2023/12/07 12:52:53;;;;;;;;;;;;;;;;;;5040551;28;20438;-59
2023/12/07 12:55:19;;;;;;;;;;;;;;;;;;5048882;28;20397;-59
2023/12/07 12:57:45;;;;;;;;;;;;;;;;;;5052102;28;19912;-59
2023/12/07 13:00:11;;;;;;;;;;;;;;;;;;5037396;28;19921;-59
2023/12/07 13:02:38;;;;;;;;;;;;;;;;;;5050156;28;19927;-59
2023/12/07 13:05:04;;;;;;;;;;;;;;;;;;5050241;28;19913;-59
2023/12/07 13:07:30;;;;;;;;;;;;;;;;;;5038973;28;19921;-59
2023/12/07 13:09:56;;;;;;;;;;;;;;;;;;5047924;28;19917;-59
2023/12/07 13:12:22;;;;;;;;;;;;;;;;;;5050829;28;19913;-59
2023/12/07 13:14:48;;;;;;;;;;;;;;;;;;5036840;28;19923;-59
2023/12/07 13:17:16;;;;;;;;;;;;;;;;;;5050476;28;19967;-59
2023/12/07 13:19:42;;;;;;;;;;;;;;;;;;5055550;28;19913;-59
2023/12/07 13:22:08;;;;;;;;;;;;;;;;;;5052354;28;19920;-59
2023/12/07 13:24:35;;;;;;;;;;;;;;;;;;5037151;28;20396;-59
2023/12/07 13:27:01;;;;;;;;;;;;;;;;;;5047748;28;19913;-59
2023/12/07 13:29:27;;;;;;;;;;;;;;;;;;5035527;28;20455;-59
2023/12/07 13:31:53;;;;;;;;;;;;;;;;;;5035840;28;19913;-59
2023/12/07 13:34:21;;;;;;;;;;;;;;;;;;5038026;28;20374;-59
2023/12/07 13:36:48;;;;;;;;;;;;;;;;;;5044665;28;20026;-59
2023/12/07 13:39:14;;;;;;;;;;;;;;;;;;5054263;28;19912;-58
2023/12/07 13:41:40;;;;;;;;;;;;;;;;;;5055236;28;19924;-58
2023/12/07 13:44:06;;;;;;;;;;;;;;;;;;5053436;28;20320;-58
2023/12/07 13:46:33;;;;;;;;;;;;;;;;;;5037817;28;19917;-58
2023/12/07 13:48:59;;;;;;;;;;;;;;;;;;5054018;28;20025;-58
2023/12/07 13:51:25;;;;;;;;;;;;;;;;;;5052834;28;19917;-59
2023/12/07 13:53:55;;;;;;;;;;;;;;;;;;5049374;28;19916;-58
2023/12/07 13:56:21;;;;;;;;;;;;;;;;;;5053305;28;19951;-58
2023/12/07 13:58:47;;;;;;;;;;;;;;;;;;5017097;28;19917;-58
2023/12/07 14:01:13;;;;;;;;;;;;;;;;;;5034910;28;19917;-51
2023/12/07 14:03:39;;;;;;;;;;;;;;;;;;5034657;28;19913;-54
2023/12/07 14:06:05;;;;;;;;;;;;;;;;;;5034707;28;19917;-52
2023/12/07 14:08:31;;;;;;;;;;;;;;;;;;5034854;28;20321;-49
2023/12/07 14:10:57;;;;;;;;;;;;;;;;;;5034832;28;19909;-56
2023/12/07 14:13:25;;;;;;;;;;;;;;;;;;5034575;28;19999;-57
2023/12/07 14:15:51;;;;;;;;;;;;;;;;;;5034622;28;19962;-57
2023/12/07 14:18:17;;;;;;;;;;;;;;;;;;5034710;28;19990;-56
2023/12/07 14:20:43;;;;;;;;;;;;;;;;;;5034664;28;19917;-51
2023/12/07 14:23:09;;;;;;;;;;;;;;;;;;5049371;28;19917;-51
2023/12/07 14:25:35;;;;;;;;;;;;;;;;;;5053107;28;19912;-56
2023/12/07 14:28:01;;;;;;;;;;;;;;;;;;5053454;28;19963;-54
2023/12/07 14:30:27;;;;;;;;;;;;;;;;;;5053866;28;19919;-55
2023/12/07 14:32:53;;;;;;;;;;;;;;;;;;5053470;28;20373;-57
2023/12/07 14:35:20;;;;;;;;;;;;;;;;;;5053497;28;19949;-58
2023/12/07 14:37:46;;;;;;;;;;;;;;;;;;5054184;28;19987;-58
2023/12/07 14:40:12;;;;;;;;;;;;;;;;;;5054148;28;19912;-59
2023/12/07 14:42:39;;;;;;;;;;;;;;;;;;5054001;28;19952;-58
2023/12/07 14:45:05;;;;;;;;;;;;;;;;;;5053942;28;19913;-58
2023/12/07 14:47:31;;;;;;;;;;;;;;;;;;5053946;28;19920;-57
2023/12/07 14:49:57;;;;;;;;;;;;;;;;;;5053983;28;19999;-60
2023/12/07 14:52:24;;;;;;;;;;;;;;;;;;5050074;28;19920;-59
2023/12/07 14:54:51;;;;;;;;;;;;;;;;;;5069254;28;19928;-58
2023/12/07 14:57:17;;;;;;;;;;;;;;;;;;5037408;28;19982;-58
2023/12/07 14:59:43;;;;;;;;;;;;;;;;;;5033739;28;20440;-59
2023/12/07 15:02:10;;;;;;;;;;;;;;;;;;5033887;28;20382;-58
2023/12/07 15:04:36;;;;;;;;;;;;;;;;;;5053318;28;19917;-59
2023/12/07 15:07:03;;;;;;;;;;;;;;;;;;5051814;28;19917;-58
2023/12/07 15:09:30;;;;;;;;;;;;;;;;;;5051334;28;19920;-57
2023/12/07 15:11:56;;;;;;;;;;;;;;;;;;5051412;28;20428;-57
2023/12/07 15:14:22;;;;;;;;;;;;;;;;;;5052686;28;20428;-58
2023/12/07 15:16:48;;;;;;;;;;;;;;;;;;5053157;28;19948;-58
2023/12/07 15:19:14;;;;;;;;;;;;;;;;;;5051545;28;19909;-59
2023/12/07 15:21:40;;;;;;;;;;;;;;;;;;5053252;28;19969;-57
2023/12/07 15:24:07;;;;;;;;;;;;;;;;;;5050628;28;19916;-57
2023/12/07 15:26:33;;;;;;;;;;;;;;;;;;5053018;28;19956;-57
2023/12/07 15:28:59;;;;;;;;;;;;;;;;;;5049074;28;19963;-57
2023/12/07 15:31:25;;;;;;;;;;;;;;;;;;5051899;28;19924;-57
2023/12/07 15:33:51;;;;;;;;;;;;;;;;;;5043285;28;19913;-56
2023/12/07 16:11:17;;;;;;;;;;;;;;;;;;5108502;22;19926;-58
2023/12/07 16:13:43;;;;;;;;;;;;;;;;;;4978389;28;19987;-59
2023/12/07 16:16:09;;;;;;;;;;;;;;;;;;5012794;28;20378;-58
2023/12/07 16:18:36;;;;;;;;;;;;;;;;;;4994847;28;19922;-56
2023/12/07 16:21:02;;;;;;;;;;;;;;;;;;5012546;28;19956;-58
2023/12/07 16:23:28;;;;;;;;;;;;;;;;;;5051889;22;19924;-49
2023/12/07 16:25:54;;;;;;;;;;;;;;;;;;5010925;28;19914;-53
2023/12/07 16:28:20;;;;;;;;;;;;;;;;;;5011695;28;20001;-55
2023/12/07 16:30:46;;;;;;;;;;;;;;;;;;5011926;28;19913;-54
2023/12/07 16:33:12;;;;;;;;;;;;;;;;;;5012247;28;19910;-52
2023/12/07 16:35:38;;;;;;;;;;;;;;;;;;5015742;28;20020;-52
2023/12/07 16:38:04;;;;;;;;;;;;;;;;;;5012519;28;19944;-53
2023/12/07 16:40:30;;;;;;;;;;;;;;;;;;5012362;28;20393;-54
2023/12/07 16:42:57;;;;;;;;;;;;;;;;;;5012190;28;20405;-52
2023/12/07 16:45:23;;;;;;;;;;;;;;;;;;5011631;28;19921;-49
2023/12/07 16:47:52;;;;;;;;;;;;;;;;;;5016343;28;19920;-50
2023/12/07 16:50:18;;;;;;;;;;;;;;;;;;5016070;28;19997;-50
2023/12/07 16:52:45;;;;;;;;;;;;;;;;;;5016138;28;19909;-50
2023/12/07 16:55:11;;;;;;;;;;;;;;;;;;5016124;28;19968;-49
2023/12/07 16:57:38;;;;;;;;;;;;;;;;;;5016091;28;19917;-49
2023/12/07 17:00:05;;;;;;;;;;;;;;;;;;5016273;28;19921;-50
2023/12/07 17:02:31;;;;;;;;;;;;;;;;;;5016047;28;20378;-50
2023/12/07 17:04:57;;;;;;;;;;;;;;;;;;5015914;28;19910;-55
2023/12/07 17:07:23;;;;;;;;;;;;;;;;;;5015843;28;19913;-52
2023/12/07 17:09:49;;;;;;;;;;;;;;;;;;5015623;28;20275;-49
2023/12/07 17:12:15;;;;;;;;;;;;;;;;;;5015808;28;20352;-50